Time;durP1;ratioP1;P1;durP2;ratioP2;P2;SDS_P1;SDS_P2;PMS_P1;PMS_P2;Temp;Humidity;BMP_temperature;BMP_pressure;BME280_temperature;BME280_humidity;BME280_pressure;Samples;Min_cycle;Max_cycle;Signal;HPM_P1;HPM_P2
2021/03/25 00:01:34;;;;;;;77.45;39.10;;;0.80;99.90;;;;;;6319750;22;20471;-94
2021/03/25 00:04:04;;;;;;;80.20;39.40;;;0.80;99.90;;;;;;6318934;22;20733;-93
2021/03/25 00:06:41;;;;;;;83.00;39.70;;;0.80;99.90;;;;;;6288378;22;20964;-96
2021/03/25 00:09:13;;;;;;;90.32;41.85;;;0.80;99.90;;;;;;6341916;22;20461;-92
2021/03/25 00:11:39;;;;;;;90.93;42.70;;;0.60;99.90;;;;;;6316393;22;20442;-96
2021/03/25 00:14:06;;;;;;;87.40;42.20;;;0.50;99.90;;;;;;6316928;22;20503;-93
2021/03/25 00:16:33;;;;;;;99.35;45.72;;;0.40;99.90;;;;;;6317076;22;20448;-95
2021/03/25 00:19:01;;;;;;;93.27;43.97;;;0.50;99.90;;;;;;6318207;22;20438;-96
2021/03/25 00:21:29;;;;;;;90.05;43.05;;;0.60;99.90;;;;;;6317599;22;20534;-93
2021/03/25 00:23:55;;;;;;;91.22;41.55;;;0.80;99.90;;;;;;6318351;22;20464;-93
2021/03/25 00:26:22;;;;;;;83.45;39.38;;;0.90;99.90;;;;;;6324011;22;20388;-93
2021/03/25 00:29:03;;;;;;;79.13;38.80;;;0.80;99.90;;;;;;6327010;22;20380;-96
2021/03/25 00:31:34;;;;;;;84.43;40.05;;;0.80;99.90;;;;;;6349712;22;20517;-92
2021/03/25 00:34:01;;;;;;;82.38;39.22;;;0.70;99.90;;;;;;6318485;22;20404;-94
2021/03/25 00:36:29;;;;;;;78.47;36.83;;;0.70;99.90;;;;;;6316155;22;20873;-91
2021/03/25 00:38:58;;;;;;;77.93;38.13;;;0.80;99.90;;;;;;6314163;22;20875;-96
2021/03/25 00:41:26;;;;;;;85.90;40.27;;;0.70;99.90;;;;;;6315898;22;20377;-94
2021/03/25 00:43:54;;;;;;;78.90;38.30;;;0.50;99.90;;;;;;6317797;22;20384;-94
2021/03/25 00:46:22;;;;;;;76.13;36.97;;;0.60;99.90;;;;;;6317137;22;20368;-96
2021/03/25 00:48:49;;;;;;;78.53;38.25;;;0.70;99.90;;;;;;6315272;22;20388;-96
2021/03/25 00:51:51;;;;;;;74.20;36.30;;;0.80;99.90;;;;;;6313305;22;20920;-92
2021/03/25 00:54:18;;;;;;;74.57;36.77;;;1.00;99.90;;;;;;6316342;22;20383;-96
2021/03/25 00:56:45;;;;;;;78.32;37.53;;;0.90;99.90;;;;;;6315299;22;20448;-96
2021/03/25 00:59:11;;;;;;;79.67;38.20;;;1.00;99.90;;;;;;6312072;22;20460;-93
2021/03/25 01:01:38;;;;;;;79.50;38.28;;;1.00;99.90;;;;;;6314202;22;20395;-93
2021/03/25 01:04:05;;;;;;;81.93;39.33;;;0.90;99.90;;;;;;6342044;22;20381;-95
2021/03/25 01:06:32;;;;;;;85.82;39.60;;;0.90;99.90;;;;;;6317098;22;20384;-94
2021/03/25 01:09:00;;;;;;;81.80;40.35;;;1.00;99.90;;;;;;6321279;22;20380;-96
2021/03/25 01:11:30;;;;;;;87.10;40.60;;;1.00;99.90;;;;;;6291094;22;20392;-94
2021/03/25 01:14:00;;;;;;;88.27;40.07;;;0.90;99.90;;;;;;6311872;22;20714;-95
2021/03/25 01:16:36;;;;;;;82.50;38.67;;;0.80;99.90;;;;;;6319950;22;20388;-93
2021/03/25 01:19:46;;;;;;;87.30;39.70;;;0.80;99.90;;;;;;6326814;22;20388;-96
2021/03/25 01:22:33;;;;;;;91.75;42.00;;;0.60;99.90;;;;;;6346621;22;20393;-95
2021/03/25 01:25:05;;;;;;;88.85;40.65;;;0.70;99.90;;;;;;6321738;22;20369;-96
2021/03/25 01:27:55;;;;;;;82.78;39.80;;;0.90;99.90;;;;;;6324676;22;20468;-96
2021/03/25 01:30:45;;;;;;;81.85;38.97;;;0.90;99.90;;;;;;6260372;23;20390;-93
2021/03/25 01:33:32;;;;;;;81.65;38.05;;;0.90;99.90;;;;;;6258944;23;20384;-96
2021/03/25 01:36:29;;;;;;;79.03;37.13;;;0.90;99.90;;;;;;6257581;23;20394;-94
2021/03/25 01:39:23;;;;;;;84.82;38.55;;;0.80;99.90;;;;;;6193138;23;20400;-95
2021/03/25 01:44:49;;;;;;;82.70;39.87;;;0.90;99.90;;;;;;6348722;22;20381;-93
2021/03/25 01:47:58;;;;;;;82.90;38.33;;;1.00;99.90;;;;;;6296809;22;20379;-93
2021/03/25 01:51:16;;;;;;;79.00;37.70;;;1.00;99.90;;;;;;6352043;22;20460;-93
2021/03/25 01:58:04;;;;;;;90.10;42.03;;;0.80;99.90;;;;;;6348376;22;20373;-94
2021/03/25 02:02:01;;;;;;;93.10;42.35;;;0.80;99.90;;;;;;6351149;22;20379;-93
2021/03/25 02:05:53;;;;;;;91.63;41.93;;;0.80;99.90;;;;;;6352909;22;20372;-93
2021/03/25 02:08:40;;;;;;;103.37;45.00;;;0.70;99.90;;;;;;6325393;22;20480;-93
2021/03/25 02:12:04;;;;;;;94.73;42.47;;;0.60;99.90;;;;;;6350293;22;20491;-94
2021/03/25 02:14:48;;;;;;;92.93;43.20;;;0.70;99.90;;;;;;6318197;22;20369;-96
2021/03/25 02:18:34;;;;;;;97.32;44.78;;;0.70;99.90;;;;;;6317344;22;20376;-94
2021/03/25 02:22:09;;;;;;;94.18;44.67;;;0.70;99.90;;;;;;6104865;23;20449;-95
2021/03/25 02:25:41;;;;;;;98.32;44.58;;;0.70;99.90;;;;;;6162863;23;20379;-94
2021/03/25 02:29:15;;;;;;;103.90;45.47;;;0.70;99.90;;;;;;6170187;23;20478;-93
2021/03/25 02:33:48;;;;;;;105.80;46.97;;;0.80;99.90;;;;;;6107581;23;20378;-93
2021/03/25 02:37:31;;;;;;;104.57;46.10;;;0.80;99.90;;;;;;6113256;23;20389;-96
2021/03/25 02:41:03;;;;;;;113.95;49.13;;;0.80;99.90;;;;;;6109844;23;20466;-93
2021/03/25 02:44:36;;;;;;;102.50;48.30;;;0.70;99.90;;;;;;6019550;23;20410;-96
2021/03/25 02:48:03;;;;;;;106.30;48.75;;;0.80;99.90;;;;;;6053412;23;20378;-94
2021/03/25 02:51:40;;;;;;;105.60;48.13;;;0.90;99.90;;;;;;5954313;24;20433;-95
2021/03/25 02:54:53;;;;;;;96.15;45.85;;;1.00;99.90;;;;;;5877325;24;20875;-92
2021/03/25 02:58:04;;;;;;;95.47;44.95;;;1.10;99.90;;;;;;5956556;24;20391;-96
2021/03/25 03:01:30;;;;;;;101.10;47.08;;;1.10;99.90;;;;;;5971709;24;20404;-93
2021/03/25 03:05:15;;;;;;;104.40;47.88;;;1.00;99.90;;;;;;5986613;24;20407;-93
2021/03/25 03:08:43;;;;;;;98.53;45.23;;;0.90;99.90;;;;;;6066212;23;20408;-96
2021/03/25 03:12:11;;;;;;;112.22;48.47;;;0.90;99.90;;;;;;6025914;23;20408;-95
2021/03/25 03:15:14;;;;;;;93.97;42.97;;;0.70;99.90;;;;;;6024683;23;20522;-94
2021/03/25 03:17:47;;;;;;;111.95;46.80;;;0.80;99.90;;;;;;5998025;23;20393;-92
2021/03/25 03:20:31;;;;;;;105.85;46.33;;;0.70;99.90;;;;;;6047245;23;20396;-96
2021/03/25 03:22:59;;;;;;;97.95;43.40;;;0.80;99.90;;;;;;6118673;23;20454;-93
2021/03/25 03:25:27;;;;;;;88.85;42.33;;;1.00;99.90;;;;;;6132903;23;20387;-91
2021/03/25 03:28:27;;;;;;;83.57;39.42;;;1.30;99.90;;;;;;6106901;23;20398;-91
2021/03/25 03:31:01;;;;;;;86.22;40.03;;;1.60;99.90;;;;;;6132736;23;20413;-96
2021/03/25 03:33:41;;;;;;;80.00;38.97;;;1.60;99.90;;;;;;6140823;23;20388;-94
2021/03/25 03:36:16;;;;;;;88.05;40.78;;;1.70;99.90;;;;;;6133210;23;20466;-93
2021/03/25 03:38:54;;;;;;;85.30;38.60;;;1.60;99.90;;;;;;6131462;23;20398;-94
2021/03/25 03:41:28;;;;;;;76.60;36.60;;;1.70;99.90;;;;;;6149237;23;20415;-94
2021/03/25 03:44:08;;;;;;;74.35;35.55;;;1.80;99.90;;;;;;6193096;23;20809;-95
2021/03/25 03:46:41;;;;;;;77.25;36.67;;;2.10;99.90;;;;;;6216169;23;20383;-91
2021/03/25 03:49:20;;;;;;;80.47;35.47;;;2.30;99.90;;;;;;6191358;23;20477;-95
2021/03/25 03:51:56;;;;;;;70.78;34.20;;;2.30;99.90;;;;;;6189542;23;20396;-91
2021/03/25 03:54:23;;;;;;;71.90;35.07;;;2.40;99.90;;;;;;6216767;23;20418;-92
2021/03/25 03:57:13;;;;;;;72.22;34.75;;;2.40;99.90;;;;;;6196449;23;20387;-93
2021/03/25 04:00:07;;;;;;;73.07;34.58;;;2.40;99.90;;;;;;6219643;23;20467;-92
2021/03/25 04:03:00;;;;;;;76.30;36.63;;;2.40;99.90;;;;;;6192172;23;20387;-91
2021/03/25 04:05:32;;;;;;;79.40;36.83;;;2.40;99.90;;;;;;6184738;23;20419;-93
2021/03/25 04:08:20;;;;;;;76.10;36.58;;;2.30;99.90;;;;;;6170336;23;20410;-96
2021/03/25 04:11:04;;;;;;;74.78;35.47;;;2.30;99.90;;;;;;6218793;23;20406;-92
2021/03/25 04:13:49;;;;;;;76.20;35.35;;;2.30;99.90;;;;;;6195307;23;20466;-94
2021/03/25 04:16:47;;;;;;;72.43;34.70;;;2.50;99.90;;;;;;6094937;23;20444;-95
2021/03/25 04:19:27;;;;;;;71.90;33.50;;;2.60;99.90;;;;;;6067681;23;20400;-92
2021/03/25 04:22:09;;;;;;;72.88;33.80;;;2.70;99.90;;;;;;6133535;23;20480;-93
2021/03/25 04:25:03;;;;;;;74.85;35.45;;;2.70;99.90;;;;;;6216225;23;20412;-91
2021/03/25 04:28:07;;;;;;;70.78;34.70;;;2.80;99.90;;;;;;6247091;23;20449;-95
2021/03/25 04:30:54;;;;;;;73.55;35.63;;;2.80;99.90;;;;;;6222815;23;20476;-96
2021/03/25 04:33:38;;;;;;;74.20;34.93;;;2.70;99.90;;;;;;6228736;23;20378;-95
2021/03/25 04:36:13;;;;;;;67.88;34.70;;;2.70;99.90;;;;;;6247348;23;20393;-96
2021/03/25 04:38:41;;;;;;;73.30;35.42;;;2.70;99.90;;;;;;6223482;23;20496;-91
2021/03/25 04:41:16;;;;;;;78.30;36.83;;;2.60;99.90;;;;;;6226604;23;20457;-92
2021/03/25 04:43:45;;;;;;;76.30;35.63;;;2.60;99.90;;;;;;6223928;23;20514;-94
2021/03/25 04:46:32;;;;;;;81.05;39.05;;;2.60;99.90;;;;;;6225818;23;20390;-93
2021/03/25 04:49:10;;;;;;;77.63;37.95;;;2.60;99.90;;;;;;6317306;22;20688;-93
2021/03/25 04:51:45;;;;;;;81.10;38.47;;;2.70;99.90;;;;;;6347957;22;20393;-94
2021/03/25 04:54:38;;;;;;;77.60;38.53;;;2.70;99.90;;;;;;6295461;22;20381;-94
2021/03/25 04:57:23;;;;;;;83.80;40.08;;;2.80;99.90;;;;;;6353832;22;20377;-94
2021/03/25 05:00:17;;;;;;;84.80;40.60;;;3.00;99.90;;;;;;6299233;22;20381;-94
2021/03/25 05:02:45;;;;;;;88.53;40.20;;;3.00;99.90;;;;;;6326836;22;20412;-95
2021/03/25 05:05:36;;;;;;;82.07;40.60;;;3.00;99.90;;;;;;6326067;22;20865;-92
2021/03/25 05:08:25;;;;;;;81.03;40.50;;;3.00;99.90;;;;;;6351697;22;20360;-92
2021/03/25 05:11:20;;;;;;;79.07;40.13;;;3.00;99.90;;;;;;6271877;22;20397;-92
2021/03/25 05:14:11;;;;;;;79.63;40.35;;;3.10;99.90;;;;;;6299257;22;20365;-93
2021/03/25 05:16:58;;;;;;;81.38;40.95;;;3.20;99.90;;;;;;6350491;22;20409;-95
2021/03/25 05:20:05;;;;;;;81.90;40.78;;;3.20;99.90;;;;;;6326073;22;20392;-95
2021/03/25 05:22:52;;;;;;;77.30;39.30;;;3.20;99.90;;;;;;6350627;22;20386;-96
2021/03/25 05:25:46;;;;;;;74.22;38.70;;;3.10;99.90;;;;;;6320925;22;20381;-93
2021/03/25 05:28:36;;;;;;;86.30;40.65;;;3.20;99.90;;;;;;6323175;22;20484;-95
2021/03/25 05:31:10;;;;;;;80.78;39.55;;;3.20;99.90;;;;;;6351453;22;20419;-92
2021/03/25 05:33:40;;;;;;;77.50;38.58;;;3.20;99.90;;;;;;6321265;22;20353;-96
2021/03/25 05:36:13;;;;;;;76.73;38.47;;;3.30;99.90;;;;;;6319477;22;20373;-93
2021/03/25 05:38:43;;;;;;;73.53;37.65;;;3.40;99.90;;;;;;6292647;22;20372;-96
2021/03/25 05:41:30;;;;;;;77.18;37.67;;;3.40;99.90;;;;;;6313998;22;20373;-92
2021/03/25 05:44:19;;;;;;;78.20;39.35;;;3.50;99.90;;;;;;6318829;22;20377;-95
2021/03/25 05:47:02;;;;;;;81.63;40.67;;;3.50;99.90;;;;;;6315809;22;20459;-96
2021/03/25 05:49:42;;;;;;;81.63;41.20;;;3.60;99.90;;;;;;6315236;22;20408;-95
2021/03/25 05:52:55;;;;;;;99.13;50.80;;;3.60;99.90;;;;;;6314672;22;20769;-92
2021/03/25 05:55:51;;;;;;;155.07;80.10;;;3.50;99.90;;;;;;6161763;23;20862;-96
2021/03/25 05:58:26;;;;;;;80.40;44.27;;;3.60;99.90;;;;;;6190226;23;20392;-96
2021/03/25 06:01:19;;;;;;;75.07;39.78;;;3.70;99.90;;;;;;6304389;22;20380;-94
2021/03/25 06:04:14;;;;;;;74.38;40.38;;;3.80;99.90;;;;;;6186352;23;20390;-92
2021/03/25 06:07:05;;;;;;;78.93;43.00;;;3.90;99.90;;;;;;6163961;23;20420;-93
2021/03/25 06:10:05;;;;;;;79.70;43.33;;;3.90;99.90;;;;;;6166079;23;20497;-91
2021/03/25 06:12:42;;;;;;;74.45;40.83;;;4.00;99.90;;;;;;6164476;23;20501;-91
2021/03/25 06:15:19;;;;;;;82.18;46.00;;;4.00;99.90;;;;;;6162970;23;20886;-96
2021/03/25 06:18:29;;;;;;;75.75;40.72;;;4.10;99.90;;;;;;6163605;23;20400;-93
2021/03/25 06:21:33;;;;;;;72.68;39.80;;;4.20;99.90;;;;;;6167401;23;20385;-91
2021/03/25 06:24:47;;;;;;;99.38;49.53;;;4.40;99.90;;;;;;6169886;23;20404;-95
2021/03/25 06:27:38;;;;;;;80.80;41.87;;;4.70;99.90;;;;;;6167803;23;20389;-95
2021/03/25 06:30:29;;;;;;;84.00;42.55;;;4.80;99.90;;;;;;6161438;23;20427;-91
2021/03/25 06:33:31;;;;;;;75.55;40.35;;;5.40;99.90;;;;;;6150350;23;20432;-93
2021/03/25 06:36:45;;;;;;;69.63;36.95;;;5.90;98.20;;;;;;6198735;23;20572;-90
2021/03/25 06:40:01;;;;;;;66.53;36.57;;;6.70;94.80;;;;;;6207675;22;20457;-92
2021/03/25 06:42:46;;;;;;;66.70;34.97;;;6.90;93.40;;;;;;6306844;22;20382;-96
2021/03/25 06:45:14;;;;;;;60.90;31.63;;;7.00;92.60;;;;;;6323709;22;20369;-94
2021/03/25 06:48:01;;;;;;;60.28;32.40;;;7.70;90.40;;;;;;6348892;22;20444;-92
2021/03/25 06:50:37;;;;;;;57.28;32.83;;;8.10;85.30;;;;;;6322735;22;20388;-93
2021/03/25 06:53:34;;;;;;;59.05;34.17;;;9.00;80.20;;;;;;6329300;22;20380;-92
2021/03/25 06:56:11;;;;;;;53.77;32.33;;;10.50;73.30;;;;;;6299124;22;20459;-92
2021/03/25 06:58:57;;;;;;;51.80;31.05;;;12.00;65.00;;;;;;6325731;22;20466;-93
2021/03/25 07:04:53;;;;;;;49.75;29.05;;;14.90;52.70;;;;;;6328477;22;20384;-96
2021/03/25 07:07:41;;;;;;;44.93;28.80;;;16.20;48.90;;;;;;6289794;22;20480;-91
2021/03/25 07:10:16;;;;;;;42.47;28.17;;;17.00;44.00;;;;;;6326847;22;20389;-91
2021/03/25 07:12:48;;;;;;;46.10;27.38;;;16.70;43.80;;;;;;6328467;22;20884;-91
2021/03/25 07:15:37;;;;;;;42.13;26.90;;;17.40;43.00;;;;;;6352520;22;20360;-90
2021/03/25 07:18:43;;;;;;;42.83;27.97;;;18.10;41.70;;;;;;6304832;22;20424;-91
2021/03/25 07:21:45;;;;;;;43.17;27.37;;;17.60;42.00;;;;;;6349713;22;20426;-90
2021/03/25 07:24:32;;;;;;;40.13;26.55;;;17.20;43.30;;;;;;6327954;22;20356;-91
2021/03/25 07:27:23;;;;;;;42.40;27.88;;;17.20;44.40;;;;;;6331332;22;20365;-90
2021/03/25 07:30:43;;;;;;;45.35;29.02;;;16.10;44.70;;;;;;6354678;22;20381;-90
2021/03/25 07:33:21;;;;;;;45.67;29.02;;;14.10;50.30;;;;;;6299802;22;20369;-91
2021/03/25 07:36:10;;;;;;;46.83;29.35;;;12.60;55.20;;;;;;6325554;22;20377;-91
2021/03/25 07:38:40;;;;;;;53.08;30.48;;;11.20;60.40;;;;;;6322514;22;20476;-91
2021/03/25 07:41:20;;;;;;;50.78;30.80;;;10.90;61.80;;;;;;6351572;22;20380;-90
2021/03/25 07:44:05;;;;;;;53.53;31.67;;;10.60;63.10;;;;;;6325777;22;20391;-91
2021/03/25 07:47:03;;;;;;;54.63;31.67;;;10.20;65.60;;;;;;6350147;22;20385;-91
2021/03/25 07:49:37;;;;;;;50.78;31.33;;;10.30;64.30;;;;;;6191358;23;20435;-91
2021/03/25 07:52:30;;;;;;;51.08;30.50;;;10.50;65.00;;;;;;6225644;22;20376;31
2021/03/25 07:55:32;;;;;;;51.27;30.73;;;10.80;63.30;;;;;;6228014;23;20586;-91
2021/03/25 07:58:05;;;;;;;55.17;30.73;;;10.40;64.70;;;;;;6078434;23;20401;-96
2021/03/25 08:00:38;;;;;;;55.13;31.73;;;10.10;67.30;;;;;;6075382;23;20446;-96
2021/03/25 08:03:20;;;;;;;50.45;30.02;;;10.30;66.90;;;;;;6074084;23;20776;-92
2021/03/25 08:05:50;;;;;;;53.63;30.98;;;10.50;66.50;;;;;;6075586;23;20394;-96
2021/03/25 08:08:35;;;;;;;53.47;31.50;;;10.10;68.60;;;;;;6079988;23;20566;-96
2021/03/25 08:11:20;;;;;;;50.97;30.57;;;10.60;66.70;;;;;;6080090;23;20406;-96
2021/03/25 08:13:52;;;;;;;53.20;31.50;;;11.00;65.30;;;;;;6079687;23;20960;-96
2021/03/25 08:16:24;;;;;;;51.72;30.23;;;11.40;63.00;;;;;;6100391;23;20440;-96
2021/03/25 08:19:20;;;;;;;50.22;29.75;;;11.60;62.70;;;;;;6133489;23;20393;-94
2021/03/25 08:25:22;;;;;;;49.53;30.58;;;11.90;61.40;;;;;;6139236;23;20403;-96
2021/03/25 08:28:18;;;;;;;47.28;29.27;;;12.00;60.50;;;;;;6129970;23;20393;-93
2021/03/25 08:31:04;;;;;;;46.83;28.70;;;12.50;59.40;;;;;;6141354;23;20424;-93
2021/03/25 08:34:01;;;;;;;50.42;29.15;;;12.70;59.60;;;;;;6252795;23;20374;-93
2021/03/25 08:37:07;;;;;;;45.65;28.27;;;12.90;58.70;;;;;;6230189;23;20548;-92
2021/03/25 08:40:35;;;;;;;50.67;30.10;;;12.50;60.00;;;;;;6112298;23;20394;-92
2021/03/25 09:04:24;;;;;;;49.40;28.90;;;11.30;67.80;;;;;;6358261;22;20405;-96
2021/03/25 09:13:30;;;;;;;52.58;29.58;;;10.60;71.10;;;;;;6269703;22;20539;-96
2021/03/25 09:19:43;;;;;;;43.50;25.35;;;10.90;70.50;;;;;;6328657;22;20416;-89
2021/03/25 09:22:38;;;;;;;42.97;25.20;;;11.10;69.50;;;;;;6339989;22;20936;-87
2021/03/25 09:25:19;;;;;;;46.22;26.85;;;11.20;68.60;;;;;;6313723;22;20381;-89
2021/03/25 09:27:56;;;;;;;47.22;27.63;;;11.10;69.40;;;;;;6340257;22;20384;-87
2021/03/25 09:30:39;;;;;;;48.33;28.00;;;10.70;71.30;;;;;;6312925;22;20446;-89
2021/03/25 09:33:40;;;;;;;48.60;28.25;;;10.80;73.40;;;;;;6312895;22;20385;-93
2021/03/25 09:36:19;;;;;;;49.90;27.30;;;10.50;75.50;;;;;;6312903;22;20409;-93
2021/03/25 09:38:58;;;;;;;44.30;26.67;;;10.30;76.70;;;;;;6312828;22;20416;-90
2021/03/25 09:41:25;;;;;;;44.40;25.15;;;10.30;76.10;;;;;;6311348;22;20413;-91
2021/03/25 09:44:15;;;;;;;46.10;28.17;;;10.50;77.40;;;;;;6310984;22;20467;-90
2021/03/25 09:46:50;;;;;;;43.40;26.13;;;10.50;74.20;;;;;;6316117;22;20380;-91
2021/03/25 09:49:31;;;;;;;40.92;22.70;;;10.60;77.70;;;;;;6312860;22;20365;-91
2021/03/25 09:52:06;;;;;;;41.33;24.40;;;10.80;76.10;;;;;;6310853;22;20393;-92
2021/03/25 09:54:37;;;;;;;42.83;24.63;;;10.90;74.50;;;;;;6311016;22;20900;-92
2021/03/25 09:57:32;;;;;;;41.55;23.00;;;10.70;73.50;;;;;;6311192;22;20377;-92
2021/03/25 10:00:03;;;;;;;40.97;22.48;;;10.80;73.30;;;;;;6310617;22;20384;-92
2021/03/25 10:02:44;;;;;;;38.65;22.10;;;10.70;73.30;;;;;;6311694;22;20387;-92
2021/03/25 10:05:35;;;;;;;39.67;22.25;;;10.50;74.30;;;;;;6310967;22;20467;-92
2021/03/25 10:08:19;;;;;;;41.50;21.17;;;10.30;76.40;;;;;;6310342;22;20866;-93
2021/03/25 10:10:57;;;;;;;39.45;20.67;;;10.30;74.90;;;;;;6311232;22;20895;-94
2021/03/25 10:13:38;;;;;;;36.80;20.20;;;10.40;72.90;;;;;;6310751;22;20402;-93
2021/03/25 10:16:36;;;;;;;35.92;21.38;;;10.30;76.90;;;;;;6311266;22;20381;-92
2021/03/25 10:19:07;;;;;;;37.10;21.47;;;10.20;76.40;;;;;;6311134;22;20385;-93
2021/03/25 10:22:01;;;;;;;34.95;19.90;;;10.20;75.20;;;;;;6311624;22;20367;-92
2021/03/25 10:24:50;;;;;;;32.25;17.35;;;10.50;74.50;;;;;;6311530;22;20377;-94
2021/03/25 10:27:39;;;;;;;33.22;19.35;;;10.80;71.20;;;;;;6312683;22;20369;-90
2021/03/25 10:30:29;;;;;;;32.53;18.98;;;10.90;70.90;;;;;;6311429;22;20388;-94
2021/03/25 10:32:57;;;;;;;31.40;17.00;;;11.20;71.80;;;;;;6310857;22;20369;-91
2021/03/25 10:35:30;;;;;;;32.10;18.35;;;11.40;70.30;;;;;;6311189;22;20404;-92
2021/03/25 10:38:03;;;;;;;34.63;19.83;;;11.30;70.60;;;;;;6310519;22;20383;-94
2021/03/25 10:40:38;;;;;;;39.83;18.95;;;11.20;70.10;;;;;;6311794;22;20380;-93
2021/03/25 10:43:06;;;;;;;34.78;19.85;;;11.40;72.00;;;;;;6311409;22;20381;-91
2021/03/25 10:45:53;;;;;;;30.48;18.40;;;11.30;74.70;;;;;;6312351;22;20377;-94
2021/03/25 10:48:25;;;;;;;26.73;13.57;;;11.40;70.20;;;;;;6312972;22;20380;-92
2021/03/25 10:50:58;;;;;;;32.05;18.10;;;11.20;66.30;;;;;;6312946;22;20388;-93
2021/03/25 10:53:31;;;;;;;31.27;18.70;;;11.10;68.50;;;;;;6312415;22;20383;-92
2021/03/25 10:56:05;;;;;;;35.00;19.55;;;11.30;69.00;;;;;;6312727;22;20760;-92
2021/03/25 10:58:38;;;;;;;33.30;19.05;;;11.70;72.50;;;;;;6313096;22;20457;-94
2021/03/25 11:01:23;;;;;;;29.20;18.65;;;11.90;71.90;;;;;;6312754;22;20467;-91
2021/03/25 11:03:50;;;;;;;34.42;17.90;;;12.20;66.50;;;;;;6313072;22;20389;-93
2021/03/25 11:06:32;;;;;;;32.28;19.13;;;11.80;63.00;;;;;;6313487;22;20381;-92
2021/03/25 11:09:29;;;;;;;30.40;18.65;;;11.90;69.00;;;;;;6313197;22;20388;-93
2021/03/25 11:12:00;;;;;;;31.42;18.45;;;12.20;65.50;;;;;;6312315;22;20389;-93
2021/03/25 11:14:31;;;;;;;30.85;17.63;;;12.40;64.10;;;;;;6314186;22;20431;-93
2021/03/25 11:17:26;;;;;;;27.00;18.02;;;12.40;65.40;;;;;;6312304;22;20411;-96
2021/03/25 11:20:03;;;;;;;34.33;18.42;;;12.60;66.10;;;;;;6313016;22;20404;-95
2021/03/25 11:22:33;;;;;;;27.35;13.77;;;12.50;67.20;;;;;;6313686;22;20365;-93
2021/03/25 11:25:03;;;;;;;25.00;14.70;;;12.70;61.80;;;;;;6319764;22;20387;-96
2021/03/25 11:27:30;;;;;;;24.90;15.88;;;12.90;59.80;;;;;;6314177;22;20381;-96
2021/03/25 11:30:27;;;;;;;22.38;13.63;;;12.70;60.80;;;;;;6318422;22;20442;-96
2021/03/25 11:32:54;;;;;;;20.52;12.93;;;12.60;59.60;;;;;;6313473;22;20888;-96
2021/03/25 11:35:33;;;;;;;18.55;10.63;;;12.50;58.00;;;;;;6314731;22;20377;-96
2021/03/25 11:38:29;;;;;;;16.83;10.27;;;12.70;57.70;;;;;;6313602;22;20456;-94
2021/03/25 11:41:01;;;;;;;16.40;8.53;;;12.90;57.50;;;;;;6318160;22;20722;-96
2021/03/25 11:43:40;;;;;;;18.80;10.60;;;12.70;56.20;;;;;;6343048;22;20412;-96
2021/03/25 11:46:33;;;;;;;19.80;11.20;;;12.40;57.70;;;;;;6342314;22;20408;-96
2021/03/25 11:49:19;;;;;;;20.58;11.68;;;12.30;58.20;;;;;;6316375;22;20407;-96
2021/03/25 11:51:52;;;;;;;20.83;11.98;;;12.50;61.90;;;;;;6316647;22;20873;-95
2021/03/25 11:54:21;;;;;;;18.50;11.63;;;13.00;59.00;;;;;;6319464;22;20377;-93
2021/03/25 11:56:56;;;;;;;17.77;11.23;;;13.20;58.60;;;;;;6322697;22;20385;-96
2021/03/25 11:59:38;;;;;;;20.88;13.50;;;12.90;56.70;;;;;;6317118;22;20419;-94
2021/03/25 12:02:23;;;;;;;21.47;13.90;;;12.90;61.90;;;;;;6322257;22;20377;-96
2021/03/25 12:04:51;;;;;;;18.95;11.57;;;13.50;61.50;;;;;;6314486;22;20741;-96
2021/03/25 12:07:21;;;;;;;21.08;12.82;;;14.40;56.10;;;;;;6312986;22;20361;-96
2021/03/25 12:10:20;;;;;;;20.70;12.48;;;14.30;56.70;;;;;;6314256;22;20385;-96
2021/03/25 12:12:50;;;;;;;19.02;11.90;;;14.30;54.80;;;;;;6317670;22;20623;-96
2021/03/25 12:15:17;;;;;;;20.20;12.20;;;14.20;55.80;;;;;;6318264;22;20381;-96
2021/03/25 12:17:54;;;;;;;20.75;12.80;;;14.00;56.90;;;;;;6315481;22;20408;-96
2021/03/25 12:20:30;;;;;;;19.60;13.00;;;14.30;56.90;;;;;;6319123;22;20385;-95
2021/03/25 12:23:43;;;;;;;20.83;11.63;;;14.50;57.00;;;;;;6320812;22;20452;-94
2021/03/25 12:29:13;;;;;;;20.75;13.00;;;14.60;55.60;;;;;;6325116;22;20373;-90
2021/03/25 12:31:44;;;;;;;22.85;13.82;;;14.30;57.80;;;;;;6322228;22;20451;-91
2021/03/25 12:34:34;;;;;;;21.73;12.73;;;14.60;56.40;;;;;;6329732;22;20377;-95
2021/03/25 13:27:52;;;;;;;17.67;10.48;;;16.40;49.20;;;;;;6323104;22;20361;-95
2021/03/25 14:38:12;;;;;;;13.50;8.57;;;15.70;39.80;;;;;;6357300;22;20363;-96
2021/03/25 15:05:34;;;;;;;17.55;9.75;;;16.00;39.00;;;;;;6271364;22;20451;-96
2021/03/25 15:08:45;;;;;;;14.05;8.80;;;15.30;40.70;;;;;;6230581;22;20367;-95
2021/03/25 15:11:23;;;;;;;16.25;9.85;;;15.60;42.30;;;;;;6270296;22;20484;-93
2021/03/25 15:14:24;;;;;;;14.47;9.10;;;15.50;41.00;;;;;;6273579;22;20423;-93
2021/03/25 15:17:26;;;;;;;15.38;8.57;;;15.50;41.70;;;;;;6298290;22;20369;-94
2021/03/25 15:20:11;;;;;;;16.30;9.00;;;15.80;39.10;;;;;;6262736;22;20385;-95
2021/03/25 15:22:38;;;;;;;18.35;11.48;;;15.60;39.80;;;;;;6261452;22;20399;-96
2021/03/25 15:25:15;;;;;;;14.43;8.50;;;15.70;41.80;;;;;;6266133;22;20395;-96
2021/03/25 15:27:43;;;;;;;16.15;9.18;;;15.90;40.00;;;;;;6270158;22;20376;-93
2021/03/25 15:30:36;;;;;;;15.93;8.93;;;16.00;38.50;;;;;;6298612;22;20388;-95
2021/03/25 15:33:18;;;;;;;17.17;9.38;;;15.90;40.10;;;;;;6228863;23;20394;-95
2021/03/25 15:35:53;;;;;;;14.57;8.88;;;15.90;39.40;;;;;;6236303;23;20409;-95
2021/03/25 15:38:30;;;;;;;15.70;9.90;;;15.50;40.60;;;;;;6255681;22;20424;-96
2021/03/25 15:41:02;;;;;;;16.85;9.80;;;15.00;40.60;;;;;;6289302;22;20383;-95
2021/03/25 15:43:55;;;;;;;19.67;10.52;;;14.80;41.80;;;;;;6276357;22;20466;-96
2021/03/25 15:46:26;;;;;;;16.63;9.45;;;15.00;41.70;;;;;;6314815;22;20935;-96
2021/03/25 15:48:54;;;;;;;18.80;10.50;;;15.10;40.80;;;;;;6314164;22;20379;-96
2021/03/25 15:51:24;;;;;;;19.58;10.50;;;15.10;41.30;;;;;;6291402;22;20500;-96
2021/03/25 15:53:51;;;;;;;15.82;9.65;;;15.00;40.30;;;;;;6237152;22;20466;-96
2021/03/25 15:56:19;;;;;;;16.08;8.98;;;14.90;41.20;;;;;;6289271;22;20383;-96
2021/03/25 15:59:00;;;;;;;15.85;8.30;;;14.80;41.30;;;;;;6296667;22;20377;-95
2021/03/25 16:01:37;;;;;;;16.38;10.00;;;14.70;41.30;;;;;;6310263;22;20375;-95
2021/03/25 16:04:05;;;;;;;16.33;9.65;;;14.40;42.60;;;;;;6324243;22;20417;-96
2021/03/25 16:06:32;;;;;;;20.83;10.32;;;14.00;43.30;;;;;;6288616;22;20385;-91
2021/03/25 16:09:04;;;;;;;17.65;9.40;;;13.70;44.90;;;;;;6288712;22;20371;-95
2021/03/25 16:11:31;;;;;;;17.27;9.07;;;13.60;45.60;;;;;;6260261;22;20430;-93
2021/03/25 16:13:58;;;;;;;18.90;9.45;;;13.50;45.80;;;;;;6290264;22;20432;-91
2021/03/25 16:16:47;;;;;;;17.02;9.65;;;13.30;45.40;;;;;;6297510;22;20446;-91
2021/03/25 16:19:43;;;;;;;17.10;9.55;;;12.90;46.90;;;;;;6292438;22;20389;-91
2021/03/25 16:23:46;;;;;;;18.67;10.10;;;12.70;49.00;;;;;;6296625;22;20404;-91
2021/03/25 16:27:17;;;;;;;18.90;9.82;;;12.60;48.80;;;;;;6113557;23;20418;-92
2021/03/25 16:29:49;;;;;;;18.85;9.45;;;12.50;49.40;;;;;;6056203;23;20481;-92
2021/03/25 16:32:16;;;;;;;17.67;9.73;;;12.30;49.80;;;;;;6072438;23;20410;-95
2021/03/25 16:34:43;;;;;;;18.40;10.23;;;12.50;49.80;;;;;;6100217;23;20389;-94
2021/03/25 16:37:10;;;;;;;20.10;10.60;;;12.40;50.10;;;;;;6101842;23;20827;-95
2021/03/25 16:39:40;;;;;;;18.92;10.13;;;12.20;50.90;;;;;;6130603;23;20388;-96
2021/03/25 16:56:36;;;;;;;29.80;11.85;;;11.10;55.60;;;;;;5074947;28;20383;-93
2021/03/25 16:59:08;;;;;;;21.67;11.05;;;11.00;56.70;;;;;;5075259;28;20476;-93
2021/03/25 17:01:36;;;;;;;23.83;11.77;;;10.80;56.90;;;;;;5072665;28;20416;-95
2021/03/25 17:04:23;;;;;;;23.17;11.45;;;10.60;58.00;;;;;;5071813;28;20558;-96
2021/03/25 17:07:04;;;;;;;29.98;11.25;;;10.60;58.90;;;;;;5117007;22;20459;-94
2021/03/25 17:09:41;;;;;;;22.52;11.07;;;10.50;59.30;;;;;;5034510;28;20981;-90
2021/03/25 17:12:33;;;;;;;21.85;10.75;;;10.30;59.40;;;;;;5043005;28;20408;-93
2021/03/25 17:16:06;;;;;;;22.05;10.60;;;10.20;59.90;;;;;;5010340;28;20467;-93
2021/03/25 17:30:46;;;;;;;21.57;11.60;;;9.50;63.70;;;;;;5641816;23;20505;-94
2021/03/25 17:34:33;;;;;;;23.02;10.80;;;9.30;63.80;;;;;;5048198;28;20451;-92
2021/03/25 17:41:16;;;;;;;21.35;10.95;;;9.20;65.20;;;;;;5588176;22;20457;-93
2021/03/25 17:44:09;;;;;;;23.67;11.32;;;9.00;66.10;;;;;;5061281;22;20430;-95
2021/03/25 17:55:24;;;;;;;24.33;10.30;;;8.30;69.80;;;;;;5367229;22;20443;-92
2021/03/25 17:58:49;;;;;;;24.90;11.90;;;7.90;71.90;;;;;;5048776;28;20400;-92